Torrington, Connecticut
Current Conditions -  °F | °C
As of 8:52 AM on Saturday 20 Dec 2014 (Local Time) from KOXC Reporting Station
Scattered Clouds Scattered Clouds  
Wind Chill: 18°   Ceiling: Unl
Heat Index: 27°   Visibility: 10mi
Dew Point: 16°   Wind: 8mph
Humidity: 64%   Direction: 20°NNE
Pressure: 30.25"   Gusts: NA
Location:  41.8°N, 73.09°W
Report Text: KOXC 201352Z 02007KT 10SM SCT025 M03/M09 A3025
Loading
Personal Weather Stations






























Interactive Weather Map New forecast layout! Learn more

10-Day Weather Forecast

Advertisements
Track Severe Weather on mobile